Main page
METAR-TAF:

METAR-TAF

Airports :

Cochin International Airport

Kochi, India

latitude: 10-09-07N, longitude: 76-24-07E, elevation: 9 m

Current weather observation

The report was made 10 minutes ago, at 09:30 UTC
Wind 10 kt from the West/Southwest
Temperature 34°C
Humidity 63%
Pressure 1006 hPa
Visibility: 5000 m
Few clouds at a height of 1500 ft
Scattered clouds at a height of 2000 ft
haze

METAR: VOCI 190930Z 25010KT 5000 HZ FEW015 SCT020 34/26 Q1006 NOSIG

Time: 15:10 (09:40 UTC)

Forecast

The report was made 1 hour and 40 minutes ago, at 08:00 UTC
Forecast valid from 19 at 09 UTC to 19 at 18 UTC
Wind 10 kt from the West
Visibility: 5000 m
Scattered clouds at a height of 1500 ft
Few clouds at a height of 2500 ft, Cumulonimbus.
Scattered clouds at a height of 8000 ft
haze
Becoming
from 19 at 13 UTC to 19 at 14 UTC
Wind 5 kt from the East
Visibility: 4000 m
thunderstorm, mist

TAF: VOCI 190800Z 1909/1918 27010KT 5000 HZ SCT015 FEW025CB SCT080 BECMG 1913/1914 08005KT 4000 TS BR

Weather observations and forecasts of more than 4000 airports (METAR and TAF reports).

The available stations are represented by yellow and red dots on the map.

Hover mouse over dot to see the name of the station.

Then click to see weather observations and forecasts.

To change the map : click on the green buttons with a black cross to zoom in, on the green button with a dash to zoom out, or on the green arrows for adjacent maps.


METAR-TAF: